sensor_id;sensor_type;location;lat;lon;timestamp;P1;durP1;ratioP1;P2;durP2;ratioP2
51985;SDS011;38002;53.296;6.600;2023-10-31T00:02:50;5.03;;;0.70;;
51985;SDS011;38002;53.296;6.600;2023-10-31T00:07:50;2.40;;;0.83;;
51985;SDS011;38002;53.296;6.600;2023-10-31T00:12:51;4.30;;;0.85;;
51985;SDS011;38002;53.296;6.600;2023-10-31T00:17:51;3.17;;;0.93;;
51985;SDS011;38002;53.296;6.600;2023-10-31T00:22:52;2.30;;;1.00;;
51985;SDS011;38002;53.296;6.600;2023-10-31T00:27:52;7.37;;;1.40;;
51985;SDS011;38002;53.296;6.600;2023-10-31T00:32:52;7.33;;;1.33;;
51985;SDS011;38002;53.296;6.600;2023-10-31T00:37:53;2.63;;;1.07;;
51985;SDS011;38002;53.296;6.600;2023-10-31T00:42:53;4.10;;;1.03;;
51985;SDS011;38002;53.296;6.600;2023-10-31T00:47:56;5.43;;;0.90;;
51985;SDS011;38002;53.296;6.600;2023-10-31T00:52:56;1.25;;;0.80;;
51985;SDS011;38002;53.296;6.600;2023-10-31T00:57:57;5.87;;;0.70;;
51985;SDS011;38002;53.296;6.600;2023-10-31T01:02:57;3.90;;;1.17;;
51985;SDS011;38002;53.296;6.600;2023-10-31T01:07:57;5.40;;;0.75;;
51985;SDS011;38002;53.296;6.600;2023-10-31T01:12:58;2.07;;;0.93;;
51985;SDS011;38002;53.296;6.600;2023-10-31T01:17:59;2.73;;;0.80;;
51985;SDS011;38002;53.296;6.600;2023-10-31T01:22:59;2.00;;;1.33;;
51985;SDS011;38002;53.296;6.600;2023-10-31T01:27:59;5.70;;;1.00;;
51985;SDS011;38002;53.296;6.600;2023-10-31T01:33:00;0.93;;;0.83;;
51985;SDS011;38002;53.296;6.600;2023-10-31T01:38:00;3.80;;;1.30;;
51985;SDS011;38002;53.296;6.600;2023-10-31T01:43:01;2.63;;;0.80;;
51985;SDS011;38002;53.296;6.600;2023-10-31T01:48:01;5.55;;;1.20;;
51985;SDS011;38002;53.296;6.600;2023-10-31T01:53:02;2.87;;;0.90;;
51985;SDS011;38002;53.296;6.600;2023-10-31T01:58:03;5.07;;;1.00;;
51985;SDS011;38002;53.296;6.600;2023-10-31T02:03:03;5.55;;;0.93;;
51985;SDS011;38002;53.296;6.600;2023-10-31T02:08:05;3.03;;;1.07;;
51985;SDS011;38002;53.296;6.600;2023-10-31T02:13:15;3.67;;;0.70;;
51985;SDS011;38002;53.296;6.600;2023-10-31T02:18:16;3.60;;;0.80;;
51985;SDS011;38002;53.296;6.600;2023-10-31T02:23:17;4.25;;;1.30;;
51985;SDS011;38002;53.296;6.600;2023-10-31T02:28:17;0.90;;;0.57;;
51985;SDS011;38002;53.296;6.600;2023-10-31T02:33:18;1.83;;;0.50;;
51985;SDS011;38002;53.296;6.600;2023-10-31T02:38:18;2.90;;;1.17;;
51985;SDS011;38002;53.296;6.600;2023-10-31T02:43:19;3.97;;;1.00;;
51985;SDS011;38002;53.296;6.600;2023-10-31T02:48:19;5.15;;;1.25;;
51985;SDS011;38002;53.296;6.600;2023-10-31T02:53:20;11.13;;;1.37;;
51985;SDS011;38002;53.296;6.600;2023-10-31T02:58:20;3.73;;;1.00;;
51985;SDS011;38002;53.296;6.600;2023-10-31T03:03:21;4.63;;;1.43;;
51985;SDS011;38002;53.296;6.600;2023-10-31T03:08:21;2.00;;;1.10;;
51985;SDS011;38002;53.296;6.600;2023-10-31T03:13:22;2.28;;;1.00;;
51985;SDS011;38002;53.296;6.600;2023-10-31T03:18:23;3.80;;;1.20;;
51985;SDS011;38002;53.296;6.600;2023-10-31T03:23:23;4.57;;;1.30;;
51985;SDS011;38002;53.296;6.600;2023-10-31T03:28:24;5.90;;;2.40;;
51985;SDS011;38002;53.296;6.600;2023-10-31T03:33:24;7.60;;;1.40;;
51985;SDS011;38002;53.296;6.600;2023-10-31T03:38:25;6.23;;;1.83;;
51985;SDS011;38002;53.296;6.600;2023-10-31T03:43:25;8.13;;;2.35;;
51985;SDS011;38002;53.296;6.600;2023-10-31T03:48:26;7.90;;;2.60;;
51985;SDS011;38002;53.296;6.600;2023-10-31T03:53:27;5.37;;;2.37;;
51985;SDS011;38002;53.296;6.600;2023-10-31T03:58:27;4.87;;;2.73;;
51985;SDS011;38002;53.296;6.600;2023-10-31T04:03:28;5.35;;;2.42;;
51985;SDS011;38002;53.296;6.600;2023-10-31T04:08:28;6.43;;;2.47;;
51985;SDS011;38002;53.296;6.600;2023-10-31T04:13:28;5.43;;;2.47;;
51985;SDS011;38002;53.296;6.600;2023-10-31T04:18:29;5.93;;;2.63;;
51985;SDS011;38002;53.296;6.600;2023-10-31T04:23:29;10.17;;;2.73;;
51985;SDS011;38002;53.296;6.600;2023-10-31T04:28:30;8.87;;;2.80;;
51985;SDS011;38002;53.296;6.600;2023-10-31T04:33:31;6.30;;;2.30;;
51985;SDS011;38002;53.296;6.600;2023-10-31T04:38:31;4.80;;;2.57;;
51985;SDS011;38002;53.296;6.600;2023-10-31T04:43:32;7.27;;;1.90;;
51985;SDS011;38002;53.296;6.600;2023-10-31T04:48:32;3.92;;;2.15;;
51985;SDS011;38002;53.296;6.600;2023-10-31T04:53:33;3.40;;;2.25;;
51985;SDS011;38002;53.296;6.600;2023-10-31T04:58:34;4.45;;;1.48;;
51985;SDS011;38002;53.296;6.600;2023-10-31T05:03:34;3.28;;;1.13;;
51985;SDS011;38002;53.296;6.600;2023-10-31T05:08:35;5.60;;;1.47;;
51985;SDS011;38002;53.296;6.600;2023-10-31T05:13:35;6.27;;;1.23;;
51985;SDS011;38002;53.296;6.600;2023-10-31T05:18:36;4.27;;;1.00;;
51985;SDS011;38002;53.296;6.600;2023-10-31T05:23:37;3.00;;;1.33;;
51985;SDS011;38002;53.296;6.600;2023-10-31T05:28:38;1.88;;;1.52;;
51985;SDS011;38002;53.296;6.600;2023-10-31T05:33:38;2.40;;;1.17;;
51985;SDS011;38002;53.296;6.600;2023-10-31T05:38:38;3.97;;;1.80;;
51985;SDS011;38002;53.296;6.600;2023-10-31T05:43:39;7.43;;;1.97;;
51985;SDS011;38002;53.296;6.600;2023-10-31T05:48:46;2.20;;;1.20;;
51985;SDS011;38002;53.296;6.600;2023-10-31T05:53:47;1.02;;;1.02;;
51985;SDS011;38002;53.296;6.600;2023-10-31T05:58:48;0.80;;;0.80;;
51985;SDS011;38002;53.296;6.600;2023-10-31T06:03:49;2.17;;;0.70;;
51985;SDS011;38002;53.296;6.600;2023-10-31T06:08:49;2.67;;;0.80;;
51985;SDS011;38002;53.296;6.600;2023-10-31T06:13:49;5.90;;;0.95;;
51985;SDS011;38002;53.296;6.600;2023-10-31T06:18:50;5.77;;;1.47;;
51985;SDS011;38002;53.296;6.600;2023-10-31T06:23:51;2.23;;;0.90;;
51985;SDS011;38002;53.296;6.600;2023-10-31T06:28:51;0.73;;;0.60;;
51985;SDS011;38002;53.296;6.600;2023-10-31T06:33:51;1.83;;;1.13;;
51985;SDS011;38002;53.296;6.600;2023-10-31T06:38:52;2.07;;;1.00;;
51985;SDS011;38002;53.296;6.600;2023-10-31T06:43:52;1.27;;;1.25;;
51985;SDS011;38002;53.296;6.600;2023-10-31T06:48:53;4.65;;;0.98;;
51985;SDS011;38002;53.296;6.600;2023-10-31T06:53:53;2.53;;;1.52;;
51985;SDS011;38002;53.296;6.600;2023-10-31T06:58:54;2.80;;;1.30;;
51985;SDS011;38002;53.296;6.600;2023-10-31T07:03:54;14.00;;;2.17;;
51985;SDS011;38002;53.296;6.600;2023-10-31T07:08:55;2.83;;;1.60;;
51985;SDS011;38002;53.296;6.600;2023-10-31T07:13:57;1.95;;;1.30;;
51985;SDS011;38002;53.296;6.600;2023-10-31T07:18:58;3.63;;;1.33;;
51985;SDS011;38002;53.296;6.600;2023-10-31T07:23:58;3.53;;;1.90;;
51985;SDS011;38002;53.296;6.600;2023-10-31T07:28:59;2.63;;;1.48;;
51985;SDS011;38002;53.296;6.600;2023-10-31T07:34:00;5.23;;;1.97;;
51985;SDS011;38002;53.296;6.600;2023-10-31T07:39:00;2.75;;;1.75;;
51985;SDS011;38002;53.296;6.600;2023-10-31T07:44:01;7.60;;;1.93;;
51985;SDS011;38002;53.296;6.600;2023-10-31T07:49:01;3.90;;;1.80;;
51985;SDS011;38002;53.296;6.600;2023-10-31T07:54:02;1.77;;;1.33;;
51985;SDS011;38002;53.296;6.600;2023-10-31T07:59:02;3.30;;;1.20;;
51985;SDS011;38002;53.296;6.600;2023-10-31T08:04:03;3.35;;;0.82;;
51985;SDS011;38002;53.296;6.600;2023-10-31T08:09:03;4.40;;;0.87;;
51985;SDS011;38002;53.296;6.600;2023-10-31T08:14:04;11.37;;;0.80;;
51985;SDS011;38002;53.296;6.600;2023-10-31T08:19:04;2.10;;;1.05;;
51985;SDS011;38002;53.296;6.600;2023-10-31T08:24:05;5.43;;;0.90;;
51985;SDS011;38002;53.296;6.600;2023-10-31T08:29:05;6.17;;;1.03;;
51985;SDS011;38002;53.296;6.600;2023-10-31T08:34:06;6.50;;;1.20;;
51985;SDS011;38002;53.296;6.600;2023-10-31T08:39:06;5.77;;;0.97;;
51985;SDS011;38002;53.296;6.600;2023-10-31T08:44:07;2.80;;;1.00;;
51985;SDS011;38002;53.296;6.600;2023-10-31T08:49:08;5.23;;;0.60;;
51985;SDS011;38002;53.296;6.600;2023-10-31T08:54:09;2.17;;;0.50;;
51985;SDS011;38002;53.296;6.600;2023-10-31T08:59:09;10.00;;;1.27;;
51985;SDS011;38002;53.296;6.600;2023-10-31T09:04:10;4.23;;;0.43;;
51985;SDS011;38002;53.296;6.600;2023-10-31T09:09:11;7.50;;;0.97;;
51985;SDS011;38002;53.296;6.600;2023-10-31T09:14:11;8.83;;;0.77;;
51985;SDS011;38002;53.296;6.600;2023-10-31T09:19:15;5.32;;;0.40;;
51985;SDS011;38002;53.296;6.600;2023-10-31T09:24:15;2.35;;;0.30;;
51985;SDS011;38002;53.296;6.600;2023-10-31T09:29:15;4.95;;;1.02;;
51985;SDS011;38002;53.296;6.600;2023-10-31T09:34:16;5.47;;;0.63;;
51985;SDS011;38002;53.296;6.600;2023-10-31T09:39:16;2.07;;;0.40;;
51985;SDS011;38002;53.296;6.600;2023-10-31T09:44:17;4.97;;;0.40;;
51985;SDS011;38002;53.296;6.600;2023-10-31T09:49:17;3.20;;;0.30;;
51985;SDS011;38002;53.296;6.600;2023-10-31T09:54:17;1.40;;;0.40;;
51985;SDS011;38002;53.296;6.600;2023-10-31T09:59:18;2.97;;;0.53;;
51985;SDS011;38002;53.296;6.600;2023-10-31T10:04:19;3.93;;;0.60;;
51985;SDS011;38002;53.296;6.600;2023-10-31T10:09:21;5.72;;;0.88;;
51985;SDS011;38002;53.296;6.600;2023-10-31T10:14:24;1.60;;;0.43;;
51985;SDS011;38002;53.296;6.600;2023-10-31T10:19:26;6.57;;;0.55;;
51985;SDS011;38002;53.296;6.600;2023-10-31T10:29:28;6.15;;;1.20;;
51985;SDS011;38002;53.296;6.600;2023-10-31T10:34:29;3.07;;;0.47;;
51985;SDS011;38002;53.296;6.600;2023-10-31T10:44:33;2.00;;;0.50;;
51985;SDS011;38002;53.296;6.600;2023-10-31T10:54:58;4.97;;;0.88;;
51985;SDS011;38002;53.296;6.600;2023-10-31T11:00:07;2.15;;;0.45;;
51985;SDS011;38002;53.296;6.600;2023-10-31T11:05:09;7.20;;;1.17;;
51985;SDS011;38002;53.296;6.600;2023-10-31T11:10:10;4.17;;;0.80;;
51985;SDS011;38002;53.296;6.600;2023-10-31T11:15:11;2.83;;;0.40;;
51985;SDS011;38002;53.296;6.600;2023-10-31T11:20:16;3.30;;;0.85;;
51985;SDS011;38002;53.296;6.600;2023-10-31T11:25:20;5.80;;;0.83;;
51985;SDS011;38002;53.296;6.600;2023-10-31T11:30:29;2.05;;;0.50;;
51985;SDS011;38002;53.296;6.600;2023-10-31T11:35:34;7.25;;;0.80;;
51985;SDS011;38002;53.296;6.600;2023-10-31T11:45:45;9.30;;;0.88;;
51985;SDS011;38002;53.296;6.600;2023-10-31T11:50:47;9.07;;;1.10;;
51985;SDS011;38002;53.296;6.600;2023-10-31T11:55:48;4.23;;;0.90;;
51985;SDS011;38002;53.296;6.600;2023-10-31T12:00:49;6.53;;;0.67;;
51985;SDS011;38002;53.296;6.600;2023-10-31T12:05:52;8.93;;;0.80;;
51985;SDS011;38002;53.296;6.600;2023-10-31T12:11:15;2.30;;;0.70;;
51985;SDS011;38002;53.296;6.600;2023-10-31T12:16:22;6.72;;;0.85;;
51985;SDS011;38002;53.296;6.600;2023-10-31T12:21:43;4.28;;;0.70;;
51985;SDS011;38002;53.296;6.600;2023-10-31T12:26:47;6.30;;;1.23;;
51985;SDS011;38002;53.296;6.600;2023-10-31T12:31:52;2.17;;;0.65;;
51985;SDS011;38002;53.296;6.600;2023-10-31T12:36:54;8.63;;;0.90;;
51985;SDS011;38002;53.296;6.600;2023-10-31T12:41:55;3.30;;;0.85;;
51985;SDS011;38002;53.296;6.600;2023-10-31T12:46:57;2.30;;;0.50;;
51985;SDS011;38002;53.296;6.600;2023-10-31T12:57:00;5.17;;;0.50;;
51985;SDS011;38002;53.296;6.600;2023-10-31T13:02:03;5.07;;;0.93;;
51985;SDS011;38002;53.296;6.600;2023-10-31T13:07:05;2.78;;;1.05;;
51985;SDS011;38002;53.296;6.600;2023-10-31T13:12:07;7.22;;;0.60;;
51985;SDS011;38002;53.296;6.600;2023-10-31T13:17:08;3.88;;;1.10;;
51985;SDS011;38002;53.296;6.600;2023-10-31T13:22:09;5.20;;;0.93;;
51985;SDS011;38002;53.296;6.600;2023-10-31T13:27:09;6.67;;;0.87;;
51985;SDS011;38002;53.296;6.600;2023-10-31T13:32:15;2.97;;;0.90;;
51985;SDS011;38002;53.296;6.600;2023-10-31T13:37:16;7.67;;;1.30;;
51985;SDS011;38002;53.296;6.600;2023-10-31T13:42:17;3.87;;;0.50;;
51985;SDS011;38002;53.296;6.600;2023-10-31T13:47:17;6.27;;;0.97;;
51985;SDS011;38002;53.296;6.600;2023-10-31T13:52:18;6.73;;;0.80;;
51985;SDS011;38002;53.296;6.600;2023-10-31T13:57:19;5.03;;;0.60;;
51985;SDS011;38002;53.296;6.600;2023-10-31T14:02:19;3.90;;;0.60;;
51985;SDS011;38002;53.296;6.600;2023-10-31T14:07:20;7.30;;;0.80;;
51985;SDS011;38002;53.296;6.600;2023-10-31T14:12:24;2.00;;;0.50;;
51985;SDS011;38002;53.296;6.600;2023-10-31T14:17:25;3.17;;;0.70;;
51985;SDS011;38002;53.296;6.600;2023-10-31T14:22:26;5.35;;;0.75;;
51985;SDS011;38002;53.296;6.600;2023-10-31T14:27:26;3.93;;;1.23;;
51985;SDS011;38002;53.296;6.600;2023-10-31T14:32:27;4.47;;;1.20;;
51985;SDS011;38002;53.296;6.600;2023-10-31T14:37:27;2.33;;;0.80;;
51985;SDS011;38002;53.296;6.600;2023-10-31T14:42:28;4.80;;;0.73;;
51985;SDS011;38002;53.296;6.600;2023-10-31T14:47:28;0.87;;;0.50;;
51985;SDS011;38002;53.296;6.600;2023-10-31T14:52:29;4.13;;;0.60;;
51985;SDS011;38002;53.296;6.600;2023-10-31T14:57:29;4.10;;;0.93;;
51985;SDS011;38002;53.296;6.600;2023-10-31T15:02:30;4.35;;;0.47;;
51985;SDS011;38002;53.296;6.600;2023-10-31T15:07:30;2.80;;;0.37;;
51985;SDS011;38002;53.296;6.600;2023-10-31T15:12:31;1.07;;;0.40;;
51985;SDS011;38002;53.296;6.600;2023-10-31T15:17:31;1.33;;;0.40;;
51985;SDS011;38002;53.296;6.600;2023-10-31T15:22:32;3.53;;;0.50;;
51985;SDS011;38002;53.296;6.600;2023-10-31T15:27:32;0.97;;;0.40;;
51985;SDS011;38002;53.296;6.600;2023-10-31T15:32:33;2.27;;;0.33;;
51985;SDS011;38002;53.296;6.600;2023-10-31T15:37:34;3.30;;;0.57;;
51985;SDS011;38002;53.296;6.600;2023-10-31T15:42:35;6.28;;;0.90;;
51985;SDS011;38002;53.296;6.600;2023-10-31T15:47:36;2.33;;;0.40;;
51985;SDS011;38002;53.296;6.600;2023-10-31T15:52:36;1.30;;;0.40;;
51985;SDS011;38002;53.296;6.600;2023-10-31T15:57:36;3.40;;;0.50;;
51985;SDS011;38002;53.296;6.600;2023-10-31T16:02:37;6.40;;;0.60;;
51985;SDS011;38002;53.296;6.600;2023-10-31T16:07:38;2.83;;;0.50;;
51985;SDS011;38002;53.296;6.600;2023-10-31T16:12:39;2.83;;;0.60;;
51985;SDS011;38002;53.296;6.600;2023-10-31T16:17:40;1.77;;;0.33;;
51985;SDS011;38002;53.296;6.600;2023-10-31T16:22:40;3.70;;;0.20;;
51985;SDS011;38002;53.296;6.600;2023-10-31T16:27:40;3.80;;;0.55;;
51985;SDS011;38002;53.296;6.600;2023-10-31T16:32:41;1.00;;;0.40;;
51985;SDS011;38002;53.296;6.600;2023-10-31T16:37:41;0.73;;;0.30;;
51985;SDS011;38002;53.296;6.600;2023-10-31T16:42:42;3.47;;;3.13;;
51985;SDS011;38002;53.296;6.600;2023-10-31T16:47:44;4.37;;;2.40;;
51985;SDS011;38002;53.296;6.600;2023-10-31T16:52:45;4.63;;;1.50;;
51985;SDS011;38002;53.296;6.600;2023-10-31T16:57:46;2.13;;;0.93;;
51985;SDS011;38002;53.296;6.600;2023-10-31T17:02:46;2.05;;;0.80;;
51985;SDS011;38002;53.296;6.600;2023-10-31T17:07:47;1.00;;;0.70;;
51985;SDS011;38002;53.296;6.600;2023-10-31T17:12:47;2.13;;;0.70;;
51985;SDS011;38002;53.296;6.600;2023-10-31T17:17:49;3.63;;;0.80;;
51985;SDS011;38002;53.296;6.600;2023-10-31T17:22:50;1.33;;;0.63;;
51985;SDS011;38002;53.296;6.600;2023-10-31T17:27:50;3.63;;;1.17;;
51985;SDS011;38002;53.296;6.600;2023-10-31T17:32:50;4.68;;;1.98;;
51985;SDS011;38002;53.296;6.600;2023-10-31T17:37:53;2.72;;;2.45;;
51985;SDS011;38002;53.296;6.600;2023-10-31T17:42:53;4.05;;;3.03;;
51985;SDS011;38002;53.296;6.600;2023-10-31T17:47:53;3.63;;;2.10;;
51985;SDS011;38002;53.296;6.600;2023-10-31T17:52:56;4.43;;;2.10;;
51985;SDS011;38002;53.296;6.600;2023-10-31T17:57:56;6.68;;;1.40;;
51985;SDS011;38002;53.296;6.600;2023-10-31T18:02:57;3.00;;;1.10;;
51985;SDS011;38002;53.296;6.600;2023-10-31T18:07:58;2.40;;;0.90;;
51985;SDS011;38002;53.296;6.600;2023-10-31T18:12:59;2.05;;;0.80;;
51985;SDS011;38002;53.296;6.600;2023-10-31T18:17:59;6.43;;;1.60;;
51985;SDS011;38002;53.296;6.600;2023-10-31T18:23:00;4.78;;;1.10;;
51985;SDS011;38002;53.296;6.600;2023-10-31T18:28:00;2.13;;;1.45;;
51985;SDS011;38002;53.296;6.600;2023-10-31T18:33:01;2.03;;;1.93;;
51985;SDS011;38002;53.296;6.600;2023-10-31T18:38:03;1.55;;;1.45;;
51985;SDS011;38002;53.296;6.600;2023-10-31T18:43:04;1.92;;;1.70;;
51985;SDS011;38002;53.296;6.600;2023-10-31T18:48:04;3.67;;;2.03;;
51985;SDS011;38002;53.296;6.600;2023-10-31T18:53:05;4.72;;;1.92;;
51985;SDS011;38002;53.296;6.600;2023-10-31T18:58:06;1.95;;;1.20;;
51985;SDS011;38002;53.296;6.600;2023-10-31T19:03:07;2.53;;;1.13;;
51985;SDS011;38002;53.296;6.600;2023-10-31T19:08:07;2.33;;;1.40;;
51985;SDS011;38002;53.296;6.600;2023-10-31T19:13:07;3.10;;;1.70;;
51985;SDS011;38002;53.296;6.600;2023-10-31T19:18:08;2.63;;;1.40;;
51985;SDS011;38002;53.296;6.600;2023-10-31T19:23:08;5.40;;;1.80;;
51985;SDS011;38002;53.296;6.600;2023-10-31T19:28:09;12.27;;;2.30;;
51985;SDS011;38002;53.296;6.600;2023-10-31T19:33:09;5.73;;;2.13;;
51985;SDS011;38002;53.296;6.600;2023-10-31T19:38:10;5.67;;;2.33;;
51985;SDS011;38002;53.296;6.600;2023-10-31T19:43:10;8.03;;;2.27;;
51985;SDS011;38002;53.296;6.600;2023-10-31T19:48:11;5.15;;;1.50;;
51985;SDS011;38002;53.296;6.600;2023-10-31T19:53:12;1.80;;;1.70;;
51985;SDS011;38002;53.296;6.600;2023-10-31T19:58:12;4.60;;;1.90;;
51985;SDS011;38002;53.296;6.600;2023-10-31T20:03:13;2.00;;;1.90;;
51985;SDS011;38002;53.296;6.600;2023-10-31T20:08:14;2.73;;;2.27;;
51985;SDS011;38002;53.296;6.600;2023-10-31T20:13:16;7.85;;;2.67;;
51985;SDS011;38002;53.296;6.600;2023-10-31T20:18:17;3.47;;;2.25;;
51985;SDS011;38002;53.296;6.600;2023-10-31T20:23:18;7.13;;;2.10;;
51985;SDS011;38002;53.296;6.600;2023-10-31T20:28:19;9.93;;;2.47;;
51985;SDS011;38002;53.296;6.600;2023-10-31T20:33:19;2.72;;;1.88;;
51985;SDS011;38002;53.296;6.600;2023-10-31T20:38:20;5.57;;;2.45;;
51985;SDS011;38002;53.296;6.600;2023-10-31T20:43:20;5.53;;;2.30;;
51985;SDS011;38002;53.296;6.600;2023-10-31T20:48:21;3.57;;;2.23;;
51985;SDS011;38002;53.296;6.600;2023-10-31T20:53:22;7.73;;;2.30;;
51985;SDS011;38002;53.296;6.600;2023-10-31T20:58:23;5.33;;;2.67;;
51985;SDS011;38002;53.296;6.600;2023-10-31T21:03:23;6.15;;;3.10;;
51985;SDS011;38002;53.296;6.600;2023-10-31T21:08:24;5.80;;;2.70;;
51985;SDS011;38002;53.296;6.600;2023-10-31T21:13:26;4.53;;;3.20;;
51985;SDS011;38002;53.296;6.600;2023-10-31T21:18:27;3.30;;;2.97;;
51985;SDS011;38002;53.296;6.600;2023-10-31T21:23:27;7.33;;;3.57;;
51985;SDS011;38002;53.296;6.600;2023-10-31T21:28:27;7.63;;;2.97;;
51985;SDS011;38002;53.296;6.600;2023-10-31T21:33:30;5.38;;;2.67;;
51985;SDS011;38002;53.296;6.600;2023-10-31T21:38:30;3.28;;;2.90;;
51985;SDS011;38002;53.296;6.600;2023-10-31T21:43:32;6.00;;;2.72;;
51985;SDS011;38002;53.296;6.600;2023-10-31T21:48:33;3.03;;;2.05;;
51985;SDS011;38002;53.296;6.600;2023-10-31T21:53:33;7.15;;;2.20;;
51985;SDS011;38002;53.296;6.600;2023-10-31T21:58:34;2.92;;;1.90;;
51985;SDS011;38002;53.296;6.600;2023-10-31T22:03:34;5.82;;;2.30;;
51985;SDS011;38002;53.296;6.600;2023-10-31T22:08:34;6.95;;;1.90;;
51985;SDS011;38002;53.296;6.600;2023-10-31T22:13:35;2.90;;;2.10;;
51985;SDS011;38002;53.296;6.600;2023-10-31T22:18:35;5.20;;;2.27;;
51985;SDS011;38002;53.296;6.600;2023-10-31T22:23:36;2.33;;;1.80;;
51985;SDS011;38002;53.296;6.600;2023-10-31T22:28:37;10.10;;;2.78;;
51985;SDS011;38002;53.296;6.600;2023-10-31T22:33:38;3.53;;;2.20;;
51985;SDS011;38002;53.296;6.600;2023-10-31T22:38:38;4.57;;;2.75;;
51985;SDS011;38002;53.296;6.600;2023-10-31T22:43:39;5.18;;;3.17;;
51985;SDS011;38002;53.296;6.600;2023-10-31T22:48:40;3.70;;;2.58;;
51985;SDS011;38002;53.296;6.600;2023-10-31T22:53:41;11.82;;;4.38;;
51985;SDS011;38002;53.296;6.600;2023-10-31T22:58:41;5.33;;;4.20;;
51985;SDS011;38002;53.296;6.600;2023-10-31T23:03:42;6.10;;;4.03;;
51985;SDS011;38002;53.296;6.600;2023-10-31T23:08:42;6.93;;;5.20;;
51985;SDS011;38002;53.296;6.600;2023-10-31T23:13:42;14.63;;;4.83;;
51985;SDS011;38002;53.296;6.600;2023-10-31T23:18:43;7.80;;;3.33;;
51985;SDS011;38002;53.296;6.600;2023-10-31T23:23:44;6.72;;;4.88;;
51985;SDS011;38002;53.296;6.600;2023-10-31T23:28:44;8.17;;;5.30;;
51985;SDS011;38002;53.296;6.600;2023-10-31T23:33:45;9.47;;;5.57;;
51985;SDS011;38002;53.296;6.600;2023-10-31T23:38:46;9.37;;;5.40;;
51985;SDS011;38002;53.296;6.600;2023-10-31T23:43:47;12.30;;;5.50;;
51985;SDS011;38002;53.296;6.600;2023-10-31T23:48:47;8.38;;;4.60;;
51985;SDS011;38002;53.296;6.600;2023-10-31T23:53:48;7.97;;;5.03;;
51985;SDS011;38002;53.296;6.600;2023-10-31T23:58:48;15.40;;;5.82;;
